NCAR-RAP Real-Time Weather Data

Output produced by METARs form (12 May 2021  11:41 UTC)
found at http://weather.rap.ucar.edu/surface/
 
KSPS 121052Z 01008KT 10SM OVC020 12/09 A3026 RMK AO2 SLP244 T01170089 $
KSPS 120952Z 01012KT 10SM BKN019 OVC026 12/09 A3024 RMK AO2 SLP235 T01170094 $
KSPS 120852Z 01008KT 10SM OVC017 12/09 A3023 RMK AO2 SLP231 T01170094 53007 $
KSPS 120752Z 01010KT 10SM BKN016 OVC027 12/09 A3022 RMK AO2 SLP228 T01170094 $
KSPS 120652Z 01012KT 10SM OVC015 12/10 A3021 RMK AO2 SLP225 T01170100 $
KSPS 120552Z 01009KT 10SM OVC014 12/11 A3021 RMK AO2 SLP225 60000 T01170106 10144 20117 401560111 51013 $
KSPS 120452Z 03014KT 10SM BKN011 OVC016 12/11 A3020 RMK AO2 CIG 007V012 SLP224 T01170106 $
KSPS 120415Z 02012KT 10SM SCT008 OVC013 12/11 A3020 RMK AO2 T01170111 $
KSPS 120352Z 03011KT 8SM OVC009 12/11 A3020 RMK AO2 CIG 006V011 SLP223 T01170111 $
KSPS 120324Z 02012KT 10SM BKN009 OVC022 12/11 A3018 RMK AO2 CIG 007V013 T01170111 $
KSPS 120252Z 03016G23KT 10SM FEW008 BKN013 OVC021 12/11 A3017 RMK AO2 RAE05 SLP213 P0000 60000 T01170111 51025 $
KSPS 120152Z 02017KT 4SM -RA BR BKN009 OVC012 12/12 A3013 RMK AO2 RAB48 SLP199 P0000 T01220117 $
KSPS 120147Z 02017KT 5SM BR BKN009 BKN012 OVC021 12/12 A3013 RMK AO2 $
KSPS 120139Z 03014KT 10SM BKN012 OVC021 13/11 A3012 RMK AO2 T01280111 $
KSPS 120105Z 03015KT 10SM OVC016 13/11 A3010 RMK AO2 T01330111 $
KSPS 120052Z 03020KT 10SM OVC014 13/11 A3009 RMK AO2 SLP187 T01330111 $
KSPS 120036Z 02018KT 10SM OVC014 13/11 A3009 RMK AO2 T01330111 $
KSPS 112352Z 01015KT 10SM OVC018 14/12 A3008 RMK AO2 SLP183 60005 T01440117 10156 20122 53014 $
KSPS 112252Z 02014KT 10SM OVC018 14/12 A3007 RMK AO2 SLP177 T01440122 $
KSPS 112152Z 02013KT 10SM OVC020 15/12 A3005 RMK AO2 SLP170 T01500122 $
KSPS 112052Z 05012KT 10SM BKN017 BKN021 OVC090 16/13 A3004 RMK AO2 SLP168 60005 T01560128 55025 $